Time;durP1;ratioP1;P1;durP2;ratioP2;P2;SDS_P1;SDS_P2;PMS_P1;PMS_P2;Temp;Humidity;BMP_temperature;BMP_pressure;BME280_temperature;BME280_humidity;BME280_pressure;Samples;Min_cycle;Max_cycle;Signal;HPM_P1;HPM_P2
2022/04/20 00:01:16;;;;;;;3.22;2.20;;;9.80;87.80;;;;;;5085558;28;20230;-61
2022/04/20 00:03:44;;;;;;;3.15;2.28;;;9.70;86.20;;;;;;5084754;28;20230;-65
2022/04/20 00:06:12;;;;;;;2.60;2.40;;;9.80;90.90;;;;;;5089403;28;20238;-61
2022/04/20 00:08:40;;;;;;;2.50;2.30;;;9.80;90.30;;;;;;5079534;22;20667;-59
2022/04/20 00:11:08;;;;;;;2.95;2.60;;;9.90;89.40;;;;;;5044854;28;20208;-59
2022/04/20 00:13:36;;;;;;;5.68;2.35;;;9.90;88.40;;;;;;5050751;28;20302;-59
2022/04/20 00:16:06;;;;;;;6.78;2.40;;;9.80;89.10;;;;;;5050981;28;20684;-60
2022/04/20 00:18:34;;;;;;;2.63;2.42;;;9.80;89.00;;;;;;5051216;28;20232;-61
2022/04/20 00:21:02;;;;;;;5.53;2.50;;;9.80;88.30;;;;;;5051427;28;20200;-60
2022/04/20 00:23:30;;;;;;;2.95;2.72;;;9.80;89.50;;;;;;5050282;28;20204;-61
2022/04/20 00:25:57;;;;;;;2.83;2.50;;;9.70;88.40;;;;;;5050860;28;20200;-61
2022/04/20 00:28:25;;;;;;;2.50;2.30;;;9.70;89.60;;;;;;5050723;28;20252;-59
2022/04/20 00:30:53;;;;;;;4.57;2.30;;;9.50;87.70;;;;;;5050978;28;20697;-58
2022/04/20 00:33:23;;;;;;;3.10;2.28;;;9.50;91.80;;;;;;5050521;28;20217;-60
2022/04/20 00:35:51;;;;;;;3.50;2.38;;;9.60;90.70;;;;;;5051162;28;20261;-60
2022/04/20 00:38:19;;;;;;;5.32;1.98;;;9.60;89.40;;;;;;5050915;28;21043;-59
2022/04/20 00:40:49;;;;;;;3.10;2.90;;;9.60;90.80;;;;;;5050606;28;20243;-61
2022/04/20 00:43:18;;;;;;;4.70;2.58;;;9.70;89.60;;;;;;5050296;28;20744;-61
2022/04/20 00:45:47;;;;;;;2.70;2.50;;;9.70;92.10;;;;;;5051132;28;20278;-61
2022/04/20 00:48:16;;;;;;;2.40;2.20;;;9.80;90.40;;;;;;5050645;28;20220;-61
2022/04/20 00:50:45;;;;;;;6.25;2.40;;;9.50;88.60;;;;;;5050983;28;20222;-61
2022/04/20 00:53:13;;;;;;;2.78;1.80;;;9.50;91.00;;;;;;5050347;28;20232;-61
2022/04/20 00:55:41;;;;;;;3.00;2.40;;;9.50;91.10;;;;;;5050510;28;20203;-61
2022/04/20 00:58:09;;;;;;;3.28;2.60;;;9.20;90.00;;;;;;5050146;28;20596;-61
2022/04/20 01:00:37;;;;;;;3.75;2.72;;;9.10;90.20;;;;;;5050773;28;20665;-60
2022/04/20 01:03:06;;;;;;;3.05;2.80;;;9.20;92.40;;;;;;5049980;28;20203;-61
2022/04/20 01:05:34;;;;;;;4.03;2.70;;;9.20;91.40;;;;;;5050804;28;20328;-61
2022/04/20 01:08:03;;;;;;;7.15;3.42;;;9.20;90.80;;;;;;5050321;28;20239;-61
2022/04/20 01:10:32;;;;;;;2.83;2.63;;;9.20;91.90;;;;;;5050452;28;20687;-60
2022/04/20 01:13:01;;;;;;;3.10;2.80;;;9.10;92.50;;;;;;5049855;28;20247;-60
2022/04/20 01:15:29;;;;;;;3.80;3.20;;;9.10;91.80;;;;;;5050699;28;20195;-61
2022/04/20 01:17:57;;;;;;;4.65;2.60;;;9.00;90.50;;;;;;5050469;28;20224;-61
2022/04/20 01:20:25;;;;;;;3.15;2.70;;;9.00;92.70;;;;;;5050933;28;20200;-61
2022/04/20 01:22:54;;;;;;;2.55;2.35;;;9.00;91.70;;;;;;5049847;28;20612;-61
2022/04/20 01:25:22;;;;;;;9.30;3.33;;;8.90;92.50;;;;;;5050308;28;20265;-61
2022/04/20 01:27:49;;;;;;;3.20;2.50;;;8.80;91.50;;;;;;5051929;28;20302;-61
2022/04/20 01:30:17;;;;;;;3.15;2.85;;;8.80;92.30;;;;;;5054128;28;20271;-61
2022/04/20 01:32:45;;;;;;;4.25;3.20;;;8.80;91.90;;;;;;5053803;28;20204;-61
2022/04/20 01:35:13;;;;;;;2.90;2.70;;;8.60;91.90;;;;;;5054575;28;20728;-61
2022/04/20 01:37:41;;;;;;;3.08;2.78;;;8.60;93.70;;;;;;5054521;28;20232;-61
2022/04/20 01:40:11;;;;;;;2.78;2.58;;;8.50;92.20;;;;;;5053984;28;20287;-61
2022/04/20 01:42:39;;;;;;;4.28;2.85;;;8.40;94.10;;;;;;5053375;28;20695;-60
2022/04/20 01:45:07;;;;;;;2.90;2.50;;;8.40;92.50;;;;;;5054084;28;20220;-61
2022/04/20 01:47:35;;;;;;;4.50;2.38;;;8.40;92.90;;;;;;5054149;28;20227;-61
2022/04/20 01:50:04;;;;;;;3.40;2.80;;;8.40;93.30;;;;;;5053983;28;20294;-61
2022/04/20 01:52:33;;;;;;;3.58;3.08;;;8.40;92.90;;;;;;5053475;28;20254;-60
2022/04/20 01:55:00;;;;;;;3.22;2.92;;;8.30;93.20;;;;;;5053822;28;20231;-61
2022/04/20 01:57:30;;;;;;;3.00;2.80;;;8.20;94.90;;;;;;5053692;28;20250;-61
2022/04/20 01:59:57;;;;;;;2.92;2.72;;;8.20;93.30;;;;;;5053633;28;20269;-61
2022/04/20 02:02:38;;;;;;;3.42;3.13;;;8.20;93.60;;;;;;5053266;28;20212;-61
2022/04/20 02:05:10;;;;;;;5.50;2.80;;;8.20;93.70;;;;;;5052220;28;20634;-61
2022/04/20 02:07:38;;;;;;;4.25;3.75;;;8.20;94.50;;;;;;5053482;28;20300;-61
2022/04/20 02:10:07;;;;;;;3.45;3.10;;;8.20;94.10;;;;;;5053588;28;20208;-60
2022/04/20 02:12:36;;;;;;;3.15;2.83;;;8.40;95.30;;;;;;5052953;28;20204;-61
2022/04/20 02:15:06;;;;;;;3.20;2.90;;;8.30;93.30;;;;;;5053822;28;20208;-60
2022/04/20 02:17:36;;;;;;;4.07;3.60;;;8.20;95.20;;;;;;5053739;28;20250;-60
2022/04/20 02:20:04;;;;;;;3.78;3.47;;;8.30;93.80;;;;;;5053396;28;20203;-60
2022/04/20 02:22:32;;;;;;;3.78;2.85;;;8.30;92.80;;;;;;5052558;28;20216;-60
2022/04/20 02:25:00;;;;;;;4.50;2.80;;;8.20;93.30;;;;;;5053265;28;20235;-60
2022/04/20 02:27:28;;;;;;;3.28;2.50;;;8.30;94.70;;;;;;5053456;28;20696;-60
2022/04/20 02:29:57;;;;;;;5.60;3.00;;;8.20;93.10;;;;;;5053222;28;20212;-60
2022/04/20 02:32:25;;;;;;;5.30;3.88;;;8.20;93.70;;;;;;5052454;28;20648;-60
2022/04/20 02:34:53;;;;;;;6.40;2.63;;;8.10;94.60;;;;;;5052972;28;20258;-60
2022/04/20 02:37:21;;;;;;;3.10;2.80;;;8.00;93.90;;;;;;5053167;28;21015;-60
2022/04/20 02:39:50;;;;;;;3.55;3.08;;;7.90;95.60;;;;;;5052068;28;20713;-60
2022/04/20 02:42:18;;;;;;;3.28;2.97;;;8.00;93.90;;;;;;5052418;28;20247;-60
2022/04/20 02:44:46;;;;;;;3.30;2.80;;;7.80;94.40;;;;;;5046518;28;20203;-59
2022/04/20 02:47:17;;;;;;;6.05;2.83;;;7.70;94.80;;;;;;5045859;28;20302;-60
2022/04/20 02:49:44;;;;;;;4.43;2.80;;;7.70;94.30;;;;;;5046750;28;20245;-60
2022/04/20 02:52:12;;;;;;;2.95;2.47;;;7.60;94.60;;;;;;5046139;28;20207;-60
2022/04/20 02:54:40;;;;;;;4.18;2.47;;;7.60;95.30;;;;;;5046733;28;20204;-60
2022/04/20 02:57:08;;;;;;;2.95;2.70;;;7.60;96.00;;;;;;5046227;28;20240;-60
2022/04/20 02:59:36;;;;;;;3.80;3.03;;;7.60;95.20;;;;;;5048797;28;20200;-60
2022/04/20 03:02:04;;;;;;;3.33;2.90;;;7.70;95.70;;;;;;5045910;28;20286;-60
2022/04/20 03:04:33;;;;;;;3.08;2.70;;;7.70;95.80;;;;;;5028961;28;20555;-61
2022/04/20 03:07:04;;;;;;;3.10;2.80;;;7.60;95.00;;;;;;5046535;28;20696;-60
2022/04/20 03:09:32;;;;;;;5.68;3.08;;;7.40;95.30;;;;;;5052888;28;20204;-61
2022/04/20 03:12:00;;;;;;;3.05;2.80;;;7.30;95.60;;;;;;5051846;28;20216;-60
2022/04/20 03:14:28;;;;;;;3.42;2.65;;;7.30;96.10;;;;;;5051988;28;20228;-61
2022/04/20 03:16:56;;;;;;;3.40;2.90;;;7.30;95.80;;;;;;5052586;28;20200;-61
2022/04/20 03:19:24;;;;;;;3.00;2.75;;;7.30;96.10;;;;;;5051932;28;20640;-60
2022/04/20 03:21:53;;;;;;;2.88;2.67;;;7.20;97.90;;;;;;5052526;28;20249;-60
2022/04/20 03:24:21;;;;;;;2.85;2.33;;;7.30;96.70;;;;;;5051350;28;20246;-60
2022/04/20 03:26:48;;;;;;;3.10;2.80;;;7.20;96.50;;;;;;5052226;28;20908;-60
2022/04/20 03:29:16;;;;;;;2.70;2.50;;;7.20;96.50;;;;;;5051928;28;20203;-59
2022/04/20 03:31:44;;;;;;;4.35;2.78;;;7.10;98.30;;;;;;5052140;28;20242;-60
2022/04/20 03:34:13;;;;;;;2.30;2.10;;;7.40;98.70;;;;;;5051265;28;20287;-60
2022/04/20 03:36:41;;;;;;;2.58;2.38;;;7.50;98.70;;;;;;5052263;28;20653;-60
2022/04/20 03:39:10;;;;;;;2.55;2.35;;;7.70;98.70;;;;;;5051988;28;20243;-60
2022/04/20 03:41:38;;;;;;;2.65;2.33;;;7.80;98.50;;;;;;5052008;28;20719;-60
2022/04/20 03:44:06;;;;;;;3.67;2.88;;;7.70;96.80;;;;;;5051381;28;20215;-60
2022/04/20 03:46:34;;;;;;;2.78;2.55;;;7.60;97.10;;;;;;5051806;28;20255;-60
2022/04/20 03:49:02;;;;;;;2.92;2.00;;;7.70;98.00;;;;;;5051286;28;20754;-59
2022/04/20 03:51:30;;;;;;;3.53;2.70;;;7.80;98.30;;;;;;5050916;28;20247;-59
2022/04/20 03:53:58;;;;;;;3.05;2.65;;;7.70;99.60;;;;;;5050947;28;20718;-60
2022/04/20 03:57:03;;;;;;;2.70;2.50;;;7.70;97.40;;;;;;5051890;28;20642;-60
2022/04/20 03:59:15;;;;;;;3.78;2.50;;;7.60;97.00;;;;;;5051522;28;20545;-60
2022/04/20 04:01:43;;;;;;;2.70;2.30;;;7.50;98.30;;;;;;5052518;28;20223;-60
2022/04/20 04:04:11;;;;;;;2.60;2.40;;;7.70;98.50;;;;;;5050915;28;20291;-60
2022/04/20 04:06:39;;;;;;;2.50;2.30;;;7.60;97.30;;;;;;5051513;28;20263;-60
2022/04/20 04:09:07;;;;;;;2.20;2.00;;;7.70;99.30;;;;;;5051110;28;20228;-60
2022/04/20 04:11:37;;;;;;;4.95;2.45;;;7.70;99.20;;;;;;5049366;28;20203;-60
2022/04/20 04:14:04;;;;;;;3.30;2.60;;;7.70;96.90;;;;;;5050230;28;20639;-60
2022/04/20 04:16:36;;;;;;;2.75;2.55;;;7.60;96.90;;;;;;5051520;28;20340;-60
2022/04/20 04:19:05;;;;;;;4.15;2.42;;;7.50;99.80;;;;;;5050999;28;20216;-60
2022/04/20 04:21:35;;;;;;;3.05;2.25;;;7.50;99.90;;;;;;5050996;28;20204;-60
2022/04/20 04:24:03;;;;;;;4.07;3.20;;;7.60;99.90;;;;;;5050598;28;20200;-60
2022/04/20 04:26:31;;;;;;;6.22;2.30;;;7.80;98.10;;;;;;5048432;28;20227;-60
2022/04/20 04:29:00;;;;;;;3.25;2.53;;;7.60;98.80;;;;;;5050803;28;20219;-60
2022/04/20 04:31:28;;;;;;;2.65;2.42;;;7.70;99.90;;;;;;5050882;28;20258;-61
2022/04/20 04:33:56;;;;;;;2.78;2.50;;;7.90;99.50;;;;;;5050484;28;20211;-61
2022/04/20 04:36:24;;;;;;;2.30;2.10;;;7.90;97.50;;;;;;5050957;28;20222;-62
2022/04/20 04:38:52;;;;;;;3.45;2.40;;;8.00;98.30;;;;;;5036964;28;20329;-60
2022/04/20 04:41:20;;;;;;;2.88;2.30;;;8.00;99.90;;;;;;5035392;28;20282;-60
2022/04/20 04:43:48;;;;;;;3.08;2.15;;;8.00;98.50;;;;;;5033740;28;20318;-59
2022/04/20 04:49:03;;;;;;;3.45;1.80;;;8.00;96.90;;;;;;5035136;28;20231;-61
2022/04/20 04:51:31;;;;;;;2.75;2.25;;;7.90;99.80;;;;;;5035520;28;20203;-59
2022/04/20 04:53:59;;;;;;;1.88;1.77;;;7.80;98.20;;;;;;5032828;28;20240;-60
2022/04/20 04:56:27;;;;;;;2.35;1.95;;;8.00;99.90;;;;;;5035565;28;20232;-60
2022/04/20 04:58:55;;;;;;;2.33;2.13;;;8.00;99.90;;;;;;5035216;28;20352;-60
2022/04/20 05:01:24;;;;;;;2.33;2.10;;;8.20;99.90;;;;;;5034966;28;21251;-60
2022/04/20 05:03:53;;;;;;;2.35;2.25;;;8.30;98.30;;;;;;5032856;28;20211;-60
2022/04/20 05:06:21;;;;;;;2.80;2.58;;;8.20;97.60;;;;;;5034992;28;20705;-60
2022/04/20 05:08:49;;;;;;;3.78;1.92;;;8.10;98.00;;;;;;5034102;28;20778;-60
2022/04/20 05:11:18;;;;;;;2.67;2.30;;;8.00;98.60;;;;;;5034514;28;20199;-60
2022/04/20 05:13:46;;;;;;;2.50;2.30;;;8.10;99.90;;;;;;5032948;28;20302;-60
2022/04/20 05:16:14;;;;;;;3.35;2.35;;;8.30;99.40;;;;;;5033971;28;20305;-59
2022/04/20 05:18:43;;;;;;;3.38;2.22;;;8.30;98.70;;;;;;5035056;28;20230;-60
2022/04/20 05:21:11;;;;;;;1.90;1.70;;;8.20;97.80;;;;;;5034979;28;20643;-59
2022/04/20 05:23:39;;;;;;;4.32;2.03;;;8.30;99.60;;;;;;5033187;28;20232;-59
2022/04/20 05:26:07;;;;;;;2.10;1.90;;;8.30;98.50;;;;;;5035250;28;20236;-60
2022/04/20 05:28:35;;;;;;;4.60;1.85;;;8.50;99.80;;;;;;5034051;28;21279;-60
2022/04/20 05:31:03;;;;;;;3.55;2.33;;;8.40;97.70;;;;;;5034677;28;20208;-60
2022/04/20 05:33:31;;;;;;;3.33;2.70;;;8.50;97.20;;;;;;5033049;28;20199;-59
2022/04/20 05:36:00;;;;;;;4.50;2.80;;;8.40;96.50;;;;;;5035175;28;20258;-60
2022/04/20 05:43:59;;;;;;;2.80;2.60;;;8.30;97.40;;;;;;5033041;28;20239;-60
2022/04/20 05:46:27;;;;;;;4.20;2.60;;;8.30;97.60;;;;;;5034633;28;20973;-61
2022/04/20 05:48:55;;;;;;;4.70;2.83;;;8.40;97.20;;;;;;5034446;28;20232;-60
2022/04/20 05:51:24;;;;;;;4.20;2.65;;;8.50;96.70;;;;;;5034050;28;20232;-60
2022/04/20 05:53:52;;;;;;;3.58;2.40;;;8.50;96.50;;;;;;5032647;28;20325;-60
2022/04/20 05:56:20;;;;;;;2.60;2.40;;;8.50;95.70;;;;;;5034545;28;20204;-60
2022/04/20 05:58:50;;;;;;;6.07;2.25;;;8.60;95.70;;;;;;5033826;28;20426;-59
2022/04/20 06:01:18;;;;;;;4.40;2.95;;;8.60;96.20;;;;;;5033758;28;20826;-60
2022/04/20 06:03:46;;;;;;;2.47;2.28;;;8.60;96.20;;;;;;5032264;28;20407;-59
2022/04/20 06:06:14;;;;;;;4.50;3.17;;;8.60;96.10;;;;;;5033256;28;20200;-59
2022/04/20 06:08:44;;;;;;;5.40;2.97;;;8.80;95.30;;;;;;5034560;28;20678;-59
2022/04/20 06:11:12;;;;;;;3.33;2.70;;;8.60;95.50;;;;;;5034844;28;20704;-59
2022/04/20 06:13:40;;;;;;;3.80;3.10;;;8.70;95.80;;;;;;5032698;28;20207;-59
2022/04/20 06:16:08;;;;;;;3.92;3.35;;;8.80;95.70;;;;;;5038068;28;20315;-59
2022/04/20 06:18:36;;;;;;;4.28;3.30;;;8.90;95.20;;;;;;5037398;28;20215;-59
2022/04/20 06:21:05;;;;;;;4.97;3.05;;;9.00;96.10;;;;;;5038173;28;20748;-59
2022/04/20 06:23:33;;;;;;;4.82;3.67;;;9.00;95.50;;;;;;5036302;28;20291;-59
2022/04/20 06:26:03;;;;;;;4.90;3.10;;;9.20;95.20;;;;;;5038133;28;20231;-58
2022/04/20 06:28:31;;;;;;;3.85;3.00;;;9.20;94.20;;;;;;5091050;22;20331;-62
2022/04/20 06:30:59;;;;;;;3.55;3.25;;;9.20;94.10;;;;;;5090672;28;20230;-62
2022/04/20 06:33:27;;;;;;;4.78;3.35;;;9.40;95.50;;;;;;5092884;28;20198;-63
2022/04/20 06:35:55;;;;;;;4.57;3.22;;;9.40;94.10;;;;;;5093456;28;20228;-62
2022/04/20 06:38:22;;;;;;;9.18;4.07;;;9.40;94.00;;;;;;5093441;28;20284;-61
2022/04/20 06:40:52;;;;;;;5.15;2.85;;;9.50;94.10;;;;;;5093503;28;20634;-62
2022/04/20 06:43:21;;;;;;;3.13;2.83;;;9.60;94.40;;;;;;5092647;28;20206;-63
2022/04/20 06:45:49;;;;;;;4.22;3.35;;;9.60;94.20;;;;;;5093022;28;20229;-61
2022/04/20 06:48:17;;;;;;;6.03;3.40;;;9.80;94.30;;;;;;5093047;28;20710;-62
2022/04/20 06:50:45;;;;;;;4.43;3.38;;;9.80;93.60;;;;;;5093074;28;20238;-62
2022/04/20 06:58:45;;;;;;;3.22;2.70;;;10.10;93.50;;;;;;5092508;28;20238;-62
2022/04/20 07:01:14;;;;;;;3.15;2.85;;;10.20;93.00;;;;;;5092565;28;20277;-62
2022/04/20 07:03:43;;;;;;;3.90;2.92;;;10.20;92.70;;;;;;5092938;28;20588;-63
2022/04/20 07:06:11;;;;;;;3.38;3.08;;;10.30;93.00;;;;;;5093154;28;20237;-63
2022/04/20 07:08:39;;;;;;;5.05;3.17;;;10.30;92.70;;;;;;5092904;28;20314;-63
2022/04/20 07:11:07;;;;;;;3.50;2.70;;;10.40;92.50;;;;;;5092790;28;20659;-63
2022/04/20 07:13:35;;;;;;;4.05;2.85;;;10.40;92.30;;;;;;5092090;28;20251;-62
2022/04/20 07:16:04;;;;;;;3.20;2.90;;;10.40;92.30;;;;;;5092543;28;20202;-62
2022/04/20 07:18:32;;;;;;;4.28;2.80;;;10.50;92.60;;;;;;5092806;28;20256;-63
2022/04/20 07:21:00;;;;;;;5.43;3.05;;;10.70;92.50;;;;;;5092920;28;20206;-62
2022/04/20 07:23:28;;;;;;;5.35;3.33;;;10.70;92.10;;;;;;5091764;28;20205;-62
2022/04/20 07:25:56;;;;;;;3.80;2.70;;;10.80;92.20;;;;;;5092484;28;20641;-63
2022/04/20 07:28:24;;;;;;;5.68;3.10;;;10.80;92.10;;;;;;5090696;28;20250;-63
2022/04/20 07:30:52;;;;;;;2.80;2.60;;;10.80;92.20;;;;;;5091102;28;20259;-63
2022/04/20 07:33:22;;;;;;;4.13;3.05;;;10.90;91.90;;;;;;5091817;28;20234;-62
2022/04/20 07:35:50;;;;;;;7.32;3.00;;;11.10;92.10;;;;;;5091427;28;20194;-63
2022/04/20 07:38:17;;;;;;;3.92;3.60;;;11.30;92.10;;;;;;5090509;28;20244;-62
2022/04/20 07:40:51;;;;;;;3.80;2.92;;;11.40;91.90;;;;;;5092156;28;20209;-62
2022/04/20 07:43:19;;;;;;;3.78;2.80;;;11.60;91.60;;;;;;5091011;28;20199;-63
2022/04/20 07:45:47;;;;;;;4.75;2.90;;;11.70;91.20;;;;;;5092173;28;20653;-63
2022/04/20 07:48:15;;;;;;;7.57;3.10;;;11.90;91.00;;;;;;5091947;28;20265;-62
2022/04/20 07:50:45;;;;;;;4.25;3.15;;;12.00;90.50;;;;;;5092058;28;20195;-63
2022/04/20 07:53:13;;;;;;;3.45;2.80;;;12.10;90.80;;;;;;5091160;28;20206;-63
2022/04/20 07:55:46;;;;;;;3.40;2.80;;;12.20;91.00;;;;;;5092151;28;20206;-63
2022/04/20 07:58:14;;;;;;;4.20;2.40;;;12.50;91.30;;;;;;5091347;28;20246;-63
2022/04/20 08:00:42;;;;;;;6.72;2.53;;;12.60;88.70;;;;;;5091762;28;20298;-63
2022/04/20 08:03:12;;;;;;;2.78;2.58;;;12.90;88.80;;;;;;5090729;28;20226;-63
2022/04/20 08:05:41;;;;;;;3.40;2.60;;;13.10;85.90;;;;;;5091915;28;20241;-63
2022/04/20 08:08:11;;;;;;;3.45;2.60;;;13.20;85.90;;;;;;5091789;28;20264;-63
2022/04/20 08:10:39;;;;;;;4.28;3.05;;;13.30;85.40;;;;;;5085005;28;20252;-63
2022/04/20 08:16:01;;;;;;;2.95;2.63;;;13.50;81.90;;;;;;5078554;28;20254;-63
2022/04/20 08:18:29;;;;;;;5.82;2.83;;;13.60;83.10;;;;;;5091340;28;20290;-63
2022/04/20 08:20:57;;;;;;;2.78;2.53;;;13.60;82.50;;;;;;5092174;28;20305;-63
2022/04/20 08:23:29;;;;;;;4.05;2.92;;;13.50;82.70;;;;;;5090741;28;20249;-63
2022/04/20 08:25:57;;;;;;;2.83;2.63;;;13.60;82.30;;;;;;5091723;28;20203;-62
2022/04/20 08:28:25;;;;;;;3.78;2.63;;;13.70;81.40;;;;;;5090603;28;20802;-63
2022/04/20 08:30:53;;;;;;;4.95;2.92;;;14.00;81.00;;;;;;5090958;28;20194;-63
2022/04/20 08:33:21;;;;;;;5.10;2.80;;;14.20;82.60;;;;;;5090851;28;20291;-63
2022/04/20 08:35:49;;;;;;;5.38;3.10;;;14.50;81.10;;;;;;5091525;28;20206;-62
2022/04/20 08:38:17;;;;;;;6.10;2.70;;;14.70;80.50;;;;;;5090526;28;20276;-63
2022/04/20 08:40:48;;;;;;;3.28;2.90;;;14.80;76.90;;;;;;5091272;28;20198;-63
2022/04/20 08:43:16;;;;;;;3.92;2.65;;;15.00;76.60;;;;;;5090523;28;20214;-63
2022/04/20 08:45:45;;;;;;;3.20;2.90;;;15.00;74.80;;;;;;5091366;28;20252;-63
2022/04/20 08:48:13;;;;;;;2.90;2.65;;;15.00;73.10;;;;;;5091323;28;20276;-63
2022/04/20 08:50:41;;;;;;;3.85;2.53;;;14.90;72.50;;;;;;5091127;28;20625;-63
2022/04/20 08:53:09;;;;;;;3.85;3.22;;;14.90;73.60;;;;;;5090555;28;20209;-63
2022/04/20 08:55:38;;;;;;;3.60;2.83;;;15.10;72.20;;;;;;5091100;28;20202;-63
2022/04/20 08:58:07;;;;;;;2.60;2.35;;;15.10;74.40;;;;;;5090129;28;20250;-63
2022/04/20 09:00:35;;;;;;;3.15;2.20;;;15.40;73.90;;;;;;5090769;28;20195;-62
2022/04/20 09:03:03;;;;;;;4.15;2.92;;;15.70;72.60;;;;;;5090434;28;20207;-63
2022/04/20 09:05:34;;;;;;;4.13;2.85;;;15.50;70.30;;;;;;5091197;28;20194;-63
2022/04/20 09:08:10;;;;;;;3.42;2.38;;;15.40;70.20;;;;;;5090888;28;20718;-63
2022/04/20 09:10:39;;;;;;;3.35;2.40;;;15.50;69.10;;;;;;5084540;28;20205;-63
2022/04/20 09:13:10;;;;;;;2.50;2.30;;;15.50;71.50;;;;;;5089677;28;20233;-63
2022/04/20 09:15:40;;;;;;;2.53;2.33;;;15.60;70.70;;;;;;5085202;28;20210;-62
2022/04/20 09:18:09;;;;;;;3.85;2.65;;;15.60;69.50;;;;;;5090944;28;20698;-63
2022/04/20 09:20:39;;;;;;;1.80;1.70;;;15.80;70.30;;;;;;5090909;28;20186;-63
2022/04/20 09:23:09;;;;;;;4.45;2.05;;;15.60;69.10;;;;;;5089768;28;20205;-63
2022/04/20 09:25:49;;;;;;;2.22;2.08;;;15.50;70.50;;;;;;5090472;28;20207;-64
2022/04/20 09:28:19;;;;;;;3.40;3.10;;;15.80;71.10;;;;;;5090104;28;20242;-63
2022/04/20 09:30:51;;;;;;;2.78;2.40;;;15.80;70.20;;;;;;5090302;28;20218;-63
2022/04/20 09:33:19;;;;;;;4.80;3.40;;;15.90;70.00;;;;;;5089677;28;20718;-63
2022/04/20 09:35:49;;;;;;;3.35;2.20;;;16.10;70.30;;;;;;5090637;28;20237;-63
2022/04/20 09:38:19;;;;;;;3.50;2.38;;;16.40;69.70;;;;;;5090756;28;20222;-63
2022/04/20 09:40:48;;;;;;;2.25;2.00;;;16.30;67.80;;;;;;5090712;28;20233;-62
2022/04/20 09:43:19;;;;;;;2.83;2.63;;;16.40;69.00;;;;;;5089823;28;20249;-63
2022/04/20 09:46:02;;;;;;;2.92;2.15;;;16.70;70.90;;;;;;5090712;28;20286;-63
2022/04/20 09:51:20;;;;;;;4.20;2.25;;;16.60;68.20;;;;;;5092184;28;20250;-63
2022/04/20 09:53:50;;;;;;;4.03;2.22;;;16.80;67.60;;;;;;5093325;28;20205;-63
2022/04/20 09:56:20;;;;;;;3.35;2.17;;;17.00;66.30;;;;;;5094564;28;20226;-63
2022/04/20 09:58:59;;;;;;;3.72;2.38;;;16.90;66.20;;;;;;5094022;28;20639;-63
2022/04/20 10:01:34;;;;;;;2.65;2.45;;;16.80;66.50;;;;;;5094216;28;20206;-64
2022/04/20 10:04:05;;;;;;;3.20;2.03;;;16.70;66.50;;;;;;5093701;28;20198;-63
2022/04/20 10:06:33;;;;;;;1.90;1.70;;;16.30;67.40;;;;;;5088142;28;20203;-63
2022/04/20 10:09:03;;;;;;;4.50;2.13;;;16.50;68.10;;;;;;5093793;28;20272;-63
2022/04/20 10:11:33;;;;;;;2.42;2.30;;;16.70;67.60;;;;;;5088060;28;20207;-63
2022/04/20 10:16:51;;;;;;;3.45;2.05;;;17.10;66.80;;;;;;5093853;28;20207;-63
2022/04/20 10:19:26;;;;;;;1.85;1.75;;;17.20;67.50;;;;;;5093950;28;20301;-64
2022/04/20 10:21:54;;;;;;;4.95;2.72;;;17.50;64.80;;;;;;5093721;28;20735;-63
2022/04/20 10:24:26;;;;;;;2.42;1.85;;;17.70;65.20;;;;;;5093473;28;20289;-63
2022/04/20 10:26:57;;;;;;;3.10;2.25;;;18.00;66.80;;;;;;5092652;28;20206;-63
2022/04/20 10:29:32;;;;;;;2.72;2.28;;;18.20;64.70;;;;;;5092604;28;20231;-63
2022/04/20 10:32:08;;;;;;;3.10;2.35;;;18.20;65.00;;;;;;5086696;28;20229;-64
2022/04/20 10:34:37;;;;;;;2.30;1.60;;;18.20;63.70;;;;;;5093621;28;20241;-63
2022/04/20 10:37:07;;;;;;;1.90;1.70;;;18.20;63.10;;;;;;5093593;28;20206;-63
2022/04/20 10:39:36;;;;;;;4.00;2.65;;;18.10;63.20;;;;;;5093213;28;20306;-63
2022/04/20 10:42:20;;;;;;;2.92;2.72;;;18.20;63.50;;;;;;5092481;28;20203;-63
2022/04/20 10:45:00;;;;;;;4.72;2.85;;;18.20;64.30;;;;;;5093309;28;20678;-63
2022/04/20 10:47:30;;;;;;;5.10;2.15;;;18.20;62.90;;;;;;5093418;28;20199;-64
2022/04/20 10:50:16;;;;;;;2.47;2.20;;;18.10;63.70;;;;;;5093182;28;20602;-63
2022/04/20 10:52:49;;;;;;;2.58;2.00;;;18.20;64.30;;;;;;5092330;28;20206;-63
2022/04/20 10:55:17;;;;;;;2.17;1.90;;;18.00;63.10;;;;;;5093313;28;20234;-62
2022/04/20 10:57:45;;;;;;;3.78;1.98;;;18.00;64.10;;;;;;5092822;28;20730;-63
2022/04/20 11:00:33;;;;;;;5.13;1.70;;;18.40;63.40;;;;;;5092137;28;20222;-63
2022/04/20 11:03:06;;;;;;;2.47;2.28;;;18.50;62.60;;;;;;5092103;28;20234;-63
2022/04/20 11:05:49;;;;;;;2.00;1.90;;;18.80;61.80;;;;;;5093020;28;20671;-63
2022/04/20 11:08:17;;;;;;;3.72;2.15;;;18.70;60.50;;;;;;5092056;28;20305;-63
2022/04/20 11:19:34;;;;;;;3.15;2.45;;;18.90;63.10;;;;;;5083436;28;20254;-63
2022/04/20 11:22:08;;;;;;;2.65;2.33;;;18.80;64.00;;;;;;5092078;28;20198;-63
2022/04/20 11:24:41;;;;;;;3.05;2.20;;;19.10;63.70;;;;;;5092372;28;20205;-62
2022/04/20 11:27:11;;;;;;;2.78;2.53;;;18.90;64.20;;;;;;5091600;28;20195;-64
2022/04/20 11:29:43;;;;;;;2.20;1.92;;;18.80;63.10;;;;;;5091954;28;20687;-64
2022/04/20 11:32:15;;;;;;;2.35;2.25;;;18.80;61.80;;;;;;5091674;28;20205;-64
2022/04/20 11:34:42;;;;;;;4.35;2.38;;;18.90;63.60;;;;;;5092212;28;20723;-64
2022/04/20 11:37:10;;;;;;;1.88;1.75;;;19.10;62.20;;;;;;5091856;28;20259;-63
2022/04/20 11:39:38;;;;;;;3.15;2.13;;;19.20;62.50;;;;;;5092413;28;20223;-63
2022/04/20 11:42:08;;;;;;;2.10;2.00;;;19.40;62.80;;;;;;5091192;28;20199;-63
2022/04/20 11:44:39;;;;;;;2.40;2.05;;;19.60;61.30;;;;;;5091891;28;20230;-62
2022/04/20 11:47:08;;;;;;;2.40;2.20;;;19.50;61.10;;;;;;5092372;28;20198;-64
2022/04/20 11:49:40;;;;;;;2.70;2.30;;;19.30;61.70;;;;;;5091622;28;20722;-63
2022/04/20 11:52:11;;;;;;;2.15;1.98;;;19.30;62.10;;;;;;5091153;28;20249;-63
2022/04/20 11:54:40;;;;;;;3.35;2.00;;;19.30;61.40;;;;;;5091687;28;20225;-63
2022/04/20 11:57:09;;;;;;;2.70;2.00;;;19.50;61.40;;;;;;5092025;28;20744;-64
2022/04/20 11:59:43;;;;;;;1.90;1.80;;;19.80;62.70;;;;;;5091153;28;20218;-61
2022/04/20 12:02:12;;;;;;;1.92;1.70;;;20.00;60.30;;;;;;5091336;28;20678;-60
2022/04/20 12:04:43;;;;;;;2.47;1.90;;;19.90;61.60;;;;;;5091536;28;20242;-61
2022/04/20 12:07:11;;;;;;;2.30;2.10;;;19.70;60.30;;;;;;5091745;28;20210;-62
2022/04/20 12:09:42;;;;;;;2.53;2.08;;;19.80;60.90;;;;;;5091288;28;20785;-61
2022/04/20 12:12:12;;;;;;;6.20;1.77;;;19.70;60.70;;;;;;5089926;28;20577;-61
2022/04/20 12:14:46;;;;;;;2.75;2.05;;;19.70;60.20;;;;;;5085146;28;20198;-61
2022/04/20 12:17:20;;;;;;;6.00;2.00;;;19.70;61.40;;;;;;5091763;28;20194;-62
2022/04/20 12:19:50;;;;;;;6.20;2.35;;;19.90;60.50;;;;;;5092039;28;20209;-62
2022/04/20 12:22:20;;;;;;;3.80;2.10;;;20.00;61.90;;;;;;5090256;28;20660;-60
2022/04/20 12:25:04;;;;;;;2.45;1.90;;;19.90;59.90;;;;;;5091460;28;20248;-62
2022/04/20 12:27:32;;;;;;;2.13;2.03;;;19.90;60.50;;;;;;5090967;28;20186;-63
2022/04/20 12:30:00;;;;;;;2.25;2.05;;;20.30;61.70;;;;;;5099127;22;20223;-69
2022/04/20 12:32:33;;;;;;;4.65;2.28;;;20.20;61.00;;;;;;5070346;28;20655;-68
2022/04/20 12:35:02;;;;;;;2.55;2.20;;;20.20;60.10;;;;;;5071697;28;20199;-69
2022/04/20 12:37:30;;;;;;;2.75;2.13;;;20.40;59.70;;;;;;5071533;28;20264;-69
2022/04/20 12:40:18;;;;;;;2.80;1.92;;;20.30;61.20;;;;;;5071232;28;20257;-69
2022/04/20 12:42:58;;;;;;;2.80;2.05;;;20.50;59.70;;;;;;5069011;28;20222;-69
2022/04/20 12:45:28;;;;;;;2.53;1.83;;;20.90;59.70;;;;;;5071061;28;20596;-70
2022/04/20 12:48:03;;;;;;;3.17;2.35;;;20.60;59.90;;;;;;5071093;28;20727;-69
2022/04/20 12:50:37;;;;;;;2.50;2.00;;;20.40;59.70;;;;;;5070901;28;20285;-69
2022/04/20 12:53:06;;;;;;;2.40;2.15;;;20.70;60.80;;;;;;5069750;28;20202;-69
2022/04/20 12:55:42;;;;;;;1.90;1.70;;;20.90;60.00;;;;;;5070673;28;20418;-69
2022/04/20 13:03:49;;;;;;;2.28;2.08;;;21.50;58.80;;;;;;5069410;28;20203;-69
2022/04/20 13:06:20;;;;;;;2.92;2.00;;;21.40;58.80;;;;;;5070285;28;20243;-69
2022/04/20 13:08:48;;;;;;;5.82;1.90;;;21.60;59.00;;;;;;5070709;28;20257;-69
2022/04/20 13:11:17;;;;;;;4.97;2.15;;;21.80;58.00;;;;;;5070673;28;20223;-71
2022/04/20 13:14:05;;;;;;;4.97;2.63;;;21.80;59.30;;;;;;5069235;28;20199;-71
2022/04/20 13:16:33;;;;;;;2.30;2.05;;;21.60;59.30;;;;;;5070512;28;20200;-69
2022/04/20 13:19:01;;;;;;;3.97;1.92;;;21.50;58.80;;;;;;5070484;28;20269;-69
2022/04/20 13:21:30;;;;;;;4.22;1.88;;;21.20;59.40;;;;;;5070819;28;20226;-67
2022/04/20 13:23:59;;;;;;;4.57;1.40;;;21.00;59.60;;;;;;5071951;28;20222;-69
2022/04/20 13:29:12;;;;;;;3.83;1.98;;;20.80;59.90;;;;;;5072342;28;20577;-69
2022/04/20 13:31:41;;;;;;;1.77;1.52;;;21.00;60.10;;;;;;5074431;28;20237;-70
2022/04/20 13:34:09;;;;;;;7.60;1.90;;;21.40;60.20;;;;;;5073304;28;20216;-70
2022/04/20 13:36:38;;;;;;;1.50;1.30;;;21.90;59.10;;;;;;5074956;28;20233;-69
2022/04/20 13:39:06;;;;;;;2.78;1.48;;;22.10;58.50;;;;;;5074191;28;20277;-69
2022/04/20 13:41:34;;;;;;;2.30;2.10;;;22.10;59.10;;;;;;5074575;28;20195;-70
2022/04/20 13:44:02;;;;;;;2.03;1.58;;;21.70;58.00;;;;;;5072974;28;20624;-70